createdAt,value
2019-05-10T00:00:37.477Z,0
2019-05-10T00:01:38.899Z,0
2019-05-10T00:02:40.290Z,0
2019-05-10T00:03:41.712Z,0
2019-05-10T00:04:43.112Z,0
2019-05-10T00:05:44.511Z,0
2019-05-10T00:06:46.007Z,0
2019-05-10T00:07:47.401Z,0
2019-05-10T00:08:48.796Z,0
2019-05-10T00:09:50.237Z,0
2019-05-10T00:10:51.656Z,0
2019-05-10T00:11:53.081Z,0
2019-05-10T00:12:54.470Z,0
2019-05-10T00:13:55.889Z,0
2019-05-10T00:14:57.288Z,0
2019-05-10T00:15:58.659Z,0
2019-05-10T00:17:00.141Z,0
2019-05-10T00:18:01.609Z,0
2019-05-10T00:19:03.033Z,0
2019-05-10T00:20:04.424Z,0
2019-05-10T00:21:05.870Z,0
2019-05-10T00:22:07.353Z,0
2019-05-10T00:23:08.640Z,0
2019-05-10T00:24:10.026Z,0
2019-05-10T00:25:11.419Z,0
2019-05-10T00:26:12.813Z,0
2019-05-10T00:27:14.206Z,0
2019-05-10T00:28:15.593Z,0
2019-05-10T00:29:16.991Z,0
2019-05-10T00:30:18.383Z,0
2019-05-10T00:31:19.810Z,0
2019-05-10T00:32:21.207Z,0
2019-05-10T00:33:22.597Z,0
2019-05-10T00:34:24.035Z,0
2019-05-10T00:35:25.432Z,0
2019-05-10T00:36:26.844Z,0
2019-05-10T00:37:28.240Z,0
2019-05-10T00:38:29.685Z,0
2019-05-10T00:39:31.128Z,0
2019-05-10T00:40:32.513Z,0
2019-05-10T00:41:33.909Z,0
2019-05-10T00:42:35.325Z,0
2019-05-10T00:43:36.733Z,0
2019-05-10T00:44:38.159Z,0
2019-05-10T00:45:39.557Z,0
2019-05-10T00:46:40.936Z,0
2019-05-10T00:47:42.370Z,0
2019-05-10T00:48:43.835Z,0
2019-05-10T00:49:45.218Z,0
2019-05-10T00:50:46.607Z,0
2019-05-10T00:51:48.008Z,0
2019-05-10T00:52:49.405Z,0
2019-05-10T00:53:50.796Z,0
2019-05-10T00:54:52.197Z,0
2019-05-10T00:55:53.582Z,0
2019-05-10T00:56:55.078Z,0
2019-05-10T00:57:56.466Z,0
2019-05-10T00:58:57.868Z,0
2019-05-10T00:59:59.289Z,0
2019-05-10T01:01:00.710Z,0
2019-05-10T01:02:02.141Z,0
2019-05-10T01:03:03.533Z,0
2019-05-10T01:04:04.943Z,0
2019-05-10T01:05:06.327Z,0
2019-05-10T01:06:07.733Z,0
2019-05-10T01:07:09.163Z,0
2019-05-10T01:08:10.560Z,0
2019-05-10T01:09:11.967Z,0
2019-05-10T01:10:13.383Z,0
2019-05-10T01:11:14.780Z,0
2019-05-10T01:12:16.177Z,0
2019-05-10T01:13:17.589Z,0
2019-05-10T01:14:19.018Z,0
2019-05-10T01:15:20.409Z,0
2019-05-10T01:16:21.812Z,0
2019-05-10T01:17:23.201Z,0
2019-05-10T01:18:24.649Z,0
2019-05-10T01:19:26.059Z,0
2019-05-10T01:20:27.452Z,0
2019-05-10T01:21:28.941Z,0
2019-05-10T01:22:30.212Z,0
2019-05-10T01:23:31.609Z,0
2019-05-10T01:24:32.998Z,0
2019-05-10T01:25:35.823Z,0
2019-05-10T01:26:35.748Z,0
2019-05-10T01:27:37.504Z,0
2019-05-10T01:28:38.942Z,0
2019-05-10T01:29:40.328Z,0
2019-05-10T01:30:41.727Z,0
2019-05-10T01:31:43.122Z,0
2019-05-10T01:32:44.512Z,0
2019-05-10T01:33:45.906Z,0
2019-05-10T01:34:47.296Z,0
2019-05-10T01:35:48.682Z,0
2019-05-10T01:36:50.097Z,0
2019-05-10T01:37:51.500Z,0
2019-05-10T01:38:52.955Z,0
2019-05-10T01:39:54.413Z,0
2019-05-10T01:40:55.811Z,0
2019-05-10T01:41:57.186Z,0
2019-05-10T01:42:58.582Z,0
2019-05-10T01:43:59.969Z,0
2019-05-10T01:45:01.361Z,0
2019-05-10T01:46:02.758Z,0
2019-05-10T01:47:04.137Z,0
2019-05-10T01:48:05.561Z,0
2019-05-10T01:49:06.964Z,0
2019-05-10T01:50:08.351Z,0
2019-05-10T01:51:09.751Z,0
2019-05-10T01:52:11.147Z,0
2019-05-10T01:53:12.540Z,0
2019-05-10T01:54:13.938Z,0
2019-05-10T01:55:15.332Z,0
2019-05-10T01:56:16.720Z,0
2019-05-10T01:57:18.116Z,0
2019-05-10T01:58:19.526Z,0
2019-05-10T01:59:20.907Z,0
2019-05-10T02:00:22.320Z,0
2019-05-10T02:01:23.712Z,0
2019-05-10T02:02:25.101Z,0
2019-05-10T02:03:26.488Z,0
2019-05-10T02:04:27.919Z,0
2019-05-10T02:05:29.324Z,0
2019-05-10T02:06:30.720Z,0
2019-05-10T02:07:32.115Z,0
2019-05-10T02:08:33.518Z,0
2019-05-10T02:09:34.910Z,0
2019-05-10T02:10:36.301Z,0
2019-05-10T02:11:37.702Z,0
2019-05-10T02:12:39.128Z,0
2019-05-10T02:13:40.514Z,0
2019-05-10T02:14:42.023Z,0
2019-05-10T02:15:43.281Z,0
2019-05-10T02:16:44.668Z,0
2019-05-10T02:17:46.059Z,0
2019-05-10T02:18:47.449Z,0
2019-05-10T02:19:48.862Z,0
2019-05-10T02:20:50.253Z,0
2019-05-10T02:21:51.642Z,0
2019-05-10T02:22:53.037Z,0
2019-05-10T02:23:54.435Z,0
2019-05-10T02:24:55.841Z,0
2019-05-10T02:26:09.173Z,0
2019-05-10T02:26:58.608Z,0
2019-05-10T02:28:00.015Z,0
2019-05-10T02:29:01.479Z,0
2019-05-10T02:30:02.977Z,0
2019-05-10T02:31:04.397Z,0
2019-05-10T02:32:05.776Z,0
2019-05-10T02:33:07.168Z,0
2019-05-10T02:34:08.565Z,0
2019-05-10T02:35:09.970Z,0
2019-05-10T02:36:11.398Z,0
2019-05-10T02:37:12.732Z,0
2019-05-10T02:38:14.142Z,0
2019-05-10T02:39:15.559Z,0
2019-05-10T02:40:16.942Z,0
2019-05-10T02:41:18.336Z,0
2019-05-10T02:42:19.733Z,0
2019-05-10T02:43:21.154Z,0
2019-05-10T02:44:22.547Z,0
2019-05-10T02:45:23.948Z,0
2019-05-10T02:46:25.344Z,0
2019-05-10T02:47:26.731Z,0
2019-05-10T02:48:28.117Z,0
2019-05-10T02:49:29.514Z,0
2019-05-10T02:50:30.916Z,0
2019-05-10T02:51:32.329Z,0
2019-05-10T02:52:33.711Z,0
2019-05-10T02:53:35.108Z,0
2019-05-10T02:54:36.496Z,0
2019-05-10T02:55:37.895Z,0
2019-05-10T02:56:39.288Z,0
2019-05-10T02:57:40.684Z,0
2019-05-10T02:58:42.067Z,0
2019-05-10T02:59:44.973Z,0
2019-05-10T03:00:46.533Z,0
2019-05-10T03:01:48.135Z,0
2019-05-10T03:02:49.641Z,0
2019-05-10T03:03:51.293Z,0
2019-05-10T03:04:52.866Z,0
2019-05-10T03:05:54.354Z,0
2019-05-10T03:06:55.856Z,0
2019-05-10T03:07:57.257Z,0
2019-05-10T03:08:58.677Z,0
2019-05-10T03:10:00.070Z,0
2019-05-10T03:11:01.462Z,0
2019-05-10T03:12:02.877Z,0
2019-05-10T03:13:04.285Z,0
2019-05-10T03:14:05.668Z,0
2019-05-10T03:15:07.088Z,0
2019-05-10T03:16:08.575Z,0
2019-05-10T03:17:10.086Z,0
2019-05-10T03:18:11.587Z,0
2019-05-10T03:19:13.003Z,0
2019-05-10T03:20:14.411Z,0
2019-05-10T03:21:15.812Z,0
2019-05-10T03:22:17.366Z,0
2019-05-10T03:23:18.823Z,0
2019-05-10T03:24:20.303Z,0
2019-05-10T03:25:21.757Z,0
2019-05-10T03:26:23.158Z,0
2019-05-10T03:27:24.791Z,0
2019-05-10T03:28:26.222Z,0
2019-05-10T03:29:27.663Z,0
2019-05-10T03:30:29.125Z,0
2019-05-10T03:31:30.580Z,0
2019-05-10T03:32:32.149Z,0
2019-05-10T03:33:33.489Z,0
2019-05-10T03:34:35.001Z,0
2019-05-10T03:35:36.479Z,0
2019-05-10T03:36:37.986Z,0
2019-05-10T03:37:39.408Z,0
2019-05-10T03:38:40.846Z,0
2019-05-10T03:39:42.287Z,0
2019-05-10T03:40:43.752Z,0
2019-05-10T03:41:45.193Z,0
2019-05-10T03:42:46.624Z,0
2019-05-10T03:43:48.059Z,0
2019-05-10T03:44:49.617Z,0
2019-05-10T03:45:51.023Z,0
2019-05-10T03:46:52.501Z,0
2019-05-10T03:47:54.135Z,0
2019-05-10T03:48:55.564Z,0
2019-05-10T03:49:56.996Z,0
2019-05-10T03:50:58.644Z,0
2019-05-10T03:52:00.313Z,0
2019-05-10T03:53:01.929Z,0
2019-05-10T03:54:03.517Z,0
2019-05-10T03:55:05.090Z,0
2019-05-10T03:56:06.714Z,0
2019-05-10T03:57:14.180Z,0
2019-05-10T03:58:09.749Z,0
2019-05-10T03:59:11.302Z,0
2019-05-10T04:00:12.710Z,0
2019-05-10T04:01:14.167Z,0
2019-05-10T04:02:15.729Z,0
2019-05-10T04:03:17.320Z,0
2019-05-10T04:04:18.741Z,0
2019-05-10T04:05:20.164Z,0
2019-05-10T04:06:21.560Z,0
2019-05-10T04:07:22.954Z,0
2019-05-10T04:08:24.390Z,0
2019-05-10T04:09:25.856Z,0
2019-05-10T04:10:27.297Z,0
2019-05-10T04:11:28.701Z,0
2019-05-10T04:12:30.104Z,0
2019-05-10T04:13:31.553Z,0
2019-05-10T04:14:32.967Z,0
2019-05-10T04:15:34.389Z,0
2019-05-10T04:16:35.797Z,0
2019-05-10T04:17:37.236Z,0
2019-05-10T04:18:38.630Z,0
2019-05-10T04:19:40.041Z,0
2019-05-10T04:20:41.413Z,0
2019-05-10T04:21:42.861Z,0
2019-05-10T04:22:44.289Z,0
2019-05-10T04:23:45.713Z,0
2019-05-10T04:24:47.141Z,0
2019-05-10T04:25:48.560Z,0
2019-05-10T04:26:49.994Z,0
2019-05-10T04:27:51.417Z,0
2019-05-10T04:28:52.830Z,0
2019-05-10T04:29:54.257Z,0
2019-05-10T04:30:55.788Z,0
2019-05-10T04:31:57.125Z,0
2019-05-10T04:32:58.567Z,0
2019-05-10T04:33:59.977Z,0
2019-05-10T04:35:01.482Z,0
2019-05-10T04:36:02.834Z,0
2019-05-10T04:37:04.250Z,0
2019-05-10T04:38:05.659Z,0
2019-05-10T04:39:09.233Z,0
2019-05-10T04:40:10.661Z,0
2019-05-10T04:41:12.039Z,0
2019-05-10T04:42:13.455Z,0
2019-05-10T04:43:14.849Z,0
2019-05-10T04:44:16.354Z,0
2019-05-10T04:45:17.792Z,0
2019-05-10T04:46:19.203Z,0
2019-05-10T04:47:20.565Z,0
2019-05-10T04:48:22.004Z,0
2019-05-10T04:49:23.536Z,0
2019-05-10T04:50:24.929Z,0
2019-05-10T04:51:26.354Z,0
2019-05-10T04:52:27.762Z,0
2019-05-10T04:53:29.161Z,5
2019-05-10T04:54:30.608Z,5
2019-05-10T04:55:32.062Z,5
2019-05-10T04:56:33.492Z,5
2019-05-10T04:57:49.166Z,5
2019-05-10T04:58:36.395Z,5
2019-05-10T04:59:37.778Z,5
2019-05-10T05:00:39.277Z,0
2019-05-10T05:01:40.665Z,5
2019-05-10T05:02:42.077Z,5
2019-05-10T05:03:43.478Z,0
2019-05-10T05:04:44.903Z,0
2019-05-10T05:05:46.324Z,0
2019-05-10T05:06:47.753Z,0
2019-05-10T05:07:49.165Z,0
2019-05-10T05:08:50.616Z,0
2019-05-10T05:09:52.058Z,0
2019-05-10T05:10:53.462Z,0
2019-05-10T05:11:54.888Z,5
2019-05-10T05:12:56.280Z,5
2019-05-10T05:13:57.714Z,5
2019-05-10T05:14:59.109Z,5
2019-05-10T05:16:00.552Z,5
2019-05-10T05:17:01.979Z,5
2019-05-10T05:18:03.414Z,5
2019-05-10T05:19:04.869Z,11
2019-05-10T05:20:06.325Z,11
2019-05-10T05:21:07.671Z,11
2019-05-10T05:22:09.084Z,11
2019-05-10T05:23:10.590Z,11
2019-05-10T05:24:16.832Z,5
2019-05-10T05:25:13.334Z,11
2019-05-10T05:26:14.746Z,5
2019-05-10T05:27:16.142Z,11
2019-05-10T05:28:18.460Z,5
2019-05-10T05:29:18.966Z,5
2019-05-10T05:30:20.418Z,5
2019-05-10T05:31:21.888Z,5
2019-05-10T05:32:23.289Z,5
2019-05-10T05:33:24.691Z,5
2019-05-10T05:34:26.117Z,5
2019-05-10T05:35:27.511Z,5
2019-05-10T05:36:28.900Z,11
2019-05-10T05:37:30.313Z,11
2019-05-10T05:38:32.365Z,11
2019-05-10T05:39:33.763Z,11
2019-05-10T05:40:35.202Z,11
2019-05-10T05:41:47.599Z,11
2019-05-10T05:42:37.974Z,11
2019-05-10T05:43:45.688Z,11
2019-05-10T05:44:40.780Z,16
2019-05-10T05:45:42.184Z,16
2019-05-10T05:46:43.600Z,22
2019-05-10T05:47:45.139Z,22
2019-05-10T05:48:46.427Z,22
2019-05-10T05:49:47.849Z,22
2019-05-10T05:50:49.300Z,16
2019-05-10T05:51:50.755Z,22
2019-05-10T05:52:52.234Z,16
2019-05-10T05:53:53.824Z,22
2019-05-10T05:54:57.625Z,28
2019-05-10T05:55:57.592Z,28
2019-05-10T05:56:59.999Z,28
2019-05-10T05:58:04.891Z,28
2019-05-10T05:59:03.960Z,33
2019-05-10T06:00:06.745Z,33
2019-05-10T06:01:07.737Z,28
2019-05-10T06:02:09.767Z,28
2019-05-10T06:03:19.206Z,33
2019-05-10T06:04:13.688Z,33
2019-05-10T06:05:32.777Z,39
2019-05-10T06:06:21.963Z,39
2019-05-10T06:07:17.922Z,39
2019-05-10T06:08:23.664Z,33
2019-05-10T06:09:20.813Z,33
2019-05-10T06:10:22.223Z,28
2019-05-10T06:11:23.612Z,28
2019-05-10T06:12:25.003Z,22
2019-05-10T06:13:30.523Z,22
2019-05-10T06:14:27.744Z,22
2019-05-10T06:15:31.136Z,22
2019-05-10T06:16:30.487Z,28
2019-05-10T06:17:32.335Z,33
2019-05-10T06:18:34.318Z,39
2019-05-10T06:19:36.265Z,39
2019-05-10T06:20:43.677Z,45
2019-05-10T06:21:39.933Z,39
2019-05-10T06:22:43.879Z,33
2019-05-10T06:23:43.757Z,33
2019-05-10T06:24:46.597Z,28
2019-05-10T06:25:47.514Z,33
2019-05-10T06:26:49.376Z,39
2019-05-10T06:27:51.148Z,33
2019-05-10T06:28:59.872Z,39
2019-05-10T06:29:54.856Z,45
2019-05-10T06:30:56.247Z,45
2019-05-10T06:31:58.919Z,50
2019-05-10T06:33:06.903Z,45
2019-05-10T06:34:01.739Z,45
2019-05-10T06:35:03.305Z,45
2019-05-10T06:36:04.701Z,45
2019-05-10T06:37:06.462Z,39
2019-05-10T06:38:08.399Z,45
2019-05-10T06:39:10.226Z,39
2019-05-10T06:40:11.855Z,33
2019-05-10T06:41:17.085Z,33
2019-05-10T06:42:15.610Z,28
2019-05-10T06:43:17.605Z,28
2019-05-10T06:44:19.546Z,22
2019-05-10T06:45:21.331Z,28
2019-05-10T06:46:23.817Z,28
2019-05-10T06:47:24.974Z,28
2019-05-10T06:48:31.425Z,28
2019-05-10T06:49:28.967Z,22
2019-05-10T06:50:31.899Z,22
2019-05-10T06:51:32.513Z,16
2019-05-10T06:52:33.916Z,16
2019-05-10T06:53:36.504Z,22
2019-05-10T06:54:38.172Z,22
2019-05-10T06:55:40.218Z,16
2019-05-10T06:56:42.142Z,22
2019-05-10T06:57:43.947Z,22
2019-05-10T06:58:45.840Z,28
2019-05-10T06:59:47.656Z,33
2019-05-10T07:00:49.575Z,33
2019-05-10T07:01:52.131Z,39
2019-05-10T07:02:52.872Z,56
2019-05-10T07:03:54.686Z,50
2019-05-10T07:04:57.431Z,45
2019-05-10T07:05:59.130Z,39
2019-05-10T07:07:01.061Z,28
2019-05-10T07:08:14.045Z,28
2019-05-10T07:09:05.594Z,39
2019-05-10T07:10:15.802Z,50
2019-05-10T07:11:09.072Z,39
2019-05-10T07:12:15.203Z,33
2019-05-10T07:13:12.959Z,28
2019-05-10T07:14:14.825Z,33
2019-05-10T07:15:16.759Z,28
2019-05-10T07:16:23.929Z,22
2019-05-10T07:17:20.355Z,22
2019-05-10T07:18:22.501Z,22
2019-05-10T07:19:24.213Z,11
2019-05-10T07:20:29.638Z,11
2019-05-10T07:21:28.157Z,5
2019-05-10T07:22:29.954Z,11
2019-05-10T07:23:31.672Z,22
2019-05-10T07:24:33.284Z,22
2019-05-10T07:25:37.890Z,22
2019-05-10T07:26:37.512Z,11
2019-05-10T07:27:39.366Z,11
2019-05-10T07:28:41.266Z,5
2019-05-10T07:29:45.833Z,5
2019-05-10T07:30:44.480Z,11
2019-05-10T07:31:46.373Z,11
2019-05-10T07:32:47.964Z,11
2019-05-10T07:33:49.837Z,11
2019-05-10T07:34:59.019Z,11
2019-05-10T07:35:53.525Z,11
2019-05-10T07:36:54.878Z,11
2019-05-10T07:37:56.902Z,11
2019-05-10T07:39:02.906Z,11
2019-05-10T07:40:03.271Z,16
2019-05-10T07:41:02.230Z,28
2019-05-10T07:42:06.480Z,16
2019-05-10T07:43:05.970Z,16
2019-05-10T07:44:10.371Z,28
2019-05-10T07:45:09.603Z,22
2019-05-10T07:46:11.590Z,33
2019-05-10T07:47:13.545Z,33
2019-05-10T07:48:15.326Z,33
2019-05-10T07:49:17.178Z,39
2019-05-10T07:50:19.884Z,39
2019-05-10T07:51:23.016Z,45
2019-05-10T07:52:23.587Z,50
2019-05-10T07:53:25.365Z,73
2019-05-10T07:54:27.117Z,73
2019-05-10T07:55:30.009Z,84
2019-05-10T07:56:30.884Z,95
2019-05-10T07:57:32.815Z,101
2019-05-10T07:58:38.216Z,73
2019-05-10T07:59:49.472Z,95
2019-05-10T08:00:43.883Z,90
2019-05-10T08:01:40.278Z,78
2019-05-10T08:02:44.459Z,90
2019-05-10T08:03:48.056Z,84
2019-05-10T08:04:44.424Z,78
2019-05-10T08:05:46.249Z,90
2019-05-10T08:06:48.708Z,106
2019-05-10T08:07:49.542Z,112
2019-05-10T08:08:49.931Z,118
2019-05-10T08:09:51.309Z,123
2019-05-10T08:10:52.704Z,106
2019-05-10T08:11:59.297Z,90
2019-05-10T08:12:55.459Z,84
2019-05-10T08:13:57.876Z,67
2019-05-10T08:14:59.023Z,50
2019-05-10T08:15:59.566Z,39
2019-05-10T08:17:05.840Z,39
2019-05-10T08:18:02.315Z,50
2019-05-10T08:19:03.709Z,67
2019-05-10T08:20:08.978Z,50
2019-05-10T08:21:20.939Z,73
2019-05-10T08:22:09.197Z,67
2019-05-10T08:23:09.255Z,78
2019-05-10T08:24:16.162Z,84
2019-05-10T08:25:12.702Z,90
2019-05-10T08:26:20.254Z,95
2019-05-10T08:27:15.112Z,84
2019-05-10T08:28:16.166Z,61
2019-05-10T08:29:17.559Z,61
2019-05-10T08:30:27.979Z,61
2019-05-10T08:31:22.148Z,61
2019-05-10T08:32:25.525Z,56
2019-05-10T08:33:23.068Z,50
2019-05-10T08:34:28.951Z,45
2019-05-10T08:35:25.854Z,45
2019-05-10T08:36:27.245Z,45
2019-05-10T08:37:35.985Z,45
2019-05-10T08:38:31.798Z,39
2019-05-10T08:39:34.720Z,39
2019-05-10T08:40:36.830Z,33
2019-05-10T08:41:34.142Z,33
2019-05-10T08:42:44.343Z,33
2019-05-10T08:43:38.980Z,33
2019-05-10T08:44:38.211Z,33
2019-05-10T08:45:44.950Z,45
2019-05-10T08:46:42.030Z,50
2019-05-10T08:47:42.660Z,50
2019-05-10T08:48:50.175Z,50
2019-05-10T08:49:57.412Z,50
2019-05-10T08:50:56.385Z,50
2019-05-10T08:51:49.417Z,45
2019-05-10T08:52:49.194Z,45
2019-05-10T08:53:55.889Z,50
2019-05-10T08:54:55.008Z,56
2019-05-10T08:55:53.356Z,56
2019-05-10T08:57:49.404Z,73
2019-05-10T08:58:53.342Z,90
2019-05-10T09:00:13.321Z,78
2019-05-10T09:01:25.914Z,73
2019-05-10T09:02:20.839Z,67
2019-05-10T09:03:18.625Z,56
2019-05-10T09:04:18.835Z,50
2019-05-10T09:05:28.137Z,33
2019-05-10T09:06:22.066Z,22
2019-05-10T09:07:23.223Z,22
2019-05-10T09:08:27.696Z,22
2019-05-10T09:09:25.655Z,22
2019-05-10T09:10:27.049Z,16
2019-05-10T09:11:28.481Z,16
2019-05-10T09:12:29.902Z,11
2019-05-10T09:13:37.090Z,11
2019-05-10T09:14:32.750Z,11
2019-05-10T09:15:34.012Z,11
2019-05-10T09:16:43.545Z,11
2019-05-10T09:17:36.900Z,11
2019-05-10T09:18:42.658Z,11
2019-05-10T09:19:41.882Z,11
2019-05-10T09:20:42.075Z,11
2019-05-10T09:21:49.399Z,11
2019-05-10T09:22:43.781Z,11
2019-05-10T09:23:45.171Z,11
2019-05-10T09:24:48.765Z,11
2019-05-10T09:25:47.931Z,11
2019-05-10T09:26:52.771Z,11
2019-05-10T09:27:52.944Z,11
2019-05-10T09:28:55.552Z,11
2019-05-10T09:29:53.505Z,22
2019-05-10T09:31:00.574Z,28
2019-05-10T09:31:56.252Z,45
2019-05-10T09:33:01.030Z,56
2019-05-10T09:33:59.004Z,56
2019-05-10T09:35:07.478Z,56
2019-05-10T09:36:02.975Z,67
2019-05-10T09:37:07.860Z,67
2019-05-10T09:38:04.560Z,56
2019-05-10T09:39:09.249Z,50
2019-05-10T09:40:09.850Z,50
2019-05-10T09:41:08.675Z,56
2019-05-10T09:42:16.360Z,61
2019-05-10T09:43:12.533Z,73
2019-05-10T09:44:13.084Z,73
2019-05-10T09:45:14.215Z,73
2019-05-10T09:46:15.638Z,78
2019-05-10T09:47:17.033Z,84
2019-05-10T09:48:18.428Z,90
2019-05-10T09:49:19.821Z,101
2019-05-10T09:50:22.963Z,123
2019-05-10T09:51:27.975Z,129
2019-05-10T09:52:23.938Z,118
2019-05-10T09:53:27.533Z,101
2019-05-10T09:54:29.361Z,90
2019-05-10T09:55:28.163Z,84
2019-05-10T09:56:33.003Z,95
2019-05-10T09:57:32.250Z,112
2019-05-10T09:58:32.144Z,123
2019-05-10T09:59:33.537Z,163
2019-05-10T10:00:37.706Z,151
2019-05-10T10:01:37.143Z,146
2019-05-10T10:02:40.238Z,118
2019-05-10T10:03:43.095Z,118
2019-05-10T10:04:40.358Z,118
2019-05-10T10:05:41.750Z,140
2019-05-10T10:06:48.073Z,106
2019-05-10T10:07:44.499Z,106
2019-05-10T10:08:51.197Z,112
2019-05-10T10:09:47.779Z,112
2019-05-10T10:10:48.605Z,129
2019-05-10T10:11:57.846Z,123
2019-05-10T10:12:51.353Z,140
2019-05-10T10:13:59.345Z,236
2019-05-10T10:14:54.104Z,247
2019-05-10T10:15:57.980Z,135
2019-05-10T10:17:00.454Z,101
2019-05-10T10:17:58.370Z,78
2019-05-10T10:18:59.583Z,67
2019-05-10T10:20:00.993Z,67
2019-05-10T10:21:02.382Z,78
2019-05-10T10:22:05.700Z,78
2019-05-10T10:23:06.993Z,67
2019-05-10T10:24:15.271Z,56
2019-05-10T10:25:07.884Z,67
2019-05-10T10:26:12.813Z,90
2019-05-10T10:27:10.638Z,84
2019-05-10T10:28:16.962Z,118
2019-05-10T10:29:13.392Z,90
2019-05-10T10:30:20.596Z,61
2019-05-10T10:31:28.871Z,50
2019-05-10T10:32:17.508Z,39
2019-05-10T10:33:25.163Z,33
2019-05-10T10:34:20.259Z,33
2019-05-10T10:35:26.589Z,33
2019-05-10T10:36:23.004Z,28
2019-05-10T10:37:28.261Z,28
2019-05-10T10:38:28.844Z,28
2019-05-10T10:39:27.768Z,28
2019-05-10T10:40:28.540Z,28
2019-05-10T10:41:31.822Z,28
2019-05-10T10:42:31.286Z,22
2019-05-10T10:43:32.677Z,16
2019-05-10T10:44:34.070Z,16
2019-05-10T10:45:37.441Z,16
2019-05-10T10:46:36.841Z,22
2019-05-10T10:47:38.347Z,22
2019-05-10T10:48:43.549Z,22
2019-05-10T10:49:40.978Z,22
2019-05-10T10:50:44.173Z,28
2019-05-10T10:51:43.725Z,39
2019-05-10T10:52:45.115Z,50
2019-05-10T10:53:47.080Z,61
2019-05-10T10:54:48.084Z,78
2019-05-10T10:55:54.575Z,78
2019-05-10T10:56:50.753Z,73
2019-05-10T10:57:52.148Z,61
2019-05-10T10:58:53.543Z,67
2019-05-10T10:59:57.373Z,84
2019-05-10T11:00:56.319Z,78
2019-05-10T11:02:28.039Z,61
2019-05-10T11:02:59.093Z,56
2019-05-10T11:04:03.690Z,56
2019-05-10T11:05:01.848Z,50
2019-05-10T11:06:03.260Z,50
2019-05-10T11:07:10.428Z,56
2019-05-10T11:08:05.959Z,67
2019-05-10T11:09:07.356Z,78
2019-05-10T11:10:16.062Z,95
2019-05-10T11:11:10.592Z,118
2019-05-10T11:12:14.659Z,129
2019-05-10T11:13:20.362Z,135
2019-05-10T11:14:14.248Z,123
2019-05-10T11:15:16.567Z,123
2019-05-10T11:16:17.000Z,112
2019-05-10T11:17:18.399Z,106
2019-05-10T11:18:21.534Z,112
2019-05-10T11:19:21.146Z,95
2019-05-10T11:20:22.538Z,90
2019-05-10T11:21:28.479Z,84
2019-05-10T11:22:27.341Z,84
2019-05-10T11:23:34.086Z,95
2019-05-10T11:24:28.025Z,106
2019-05-10T11:25:29.401Z,135
2019-05-10T11:26:32.769Z,174
2019-05-10T11:27:32.166Z,168
2019-05-10T11:28:38.909Z,202
2019-05-10T11:29:34.989Z,174
2019-05-10T11:30:36.384Z,258
2019-05-10T11:31:37.801Z,697
2019-05-10T11:32:41.131Z,562
2019-05-10T11:33:41.496Z,478
2019-05-10T11:34:41.976Z,230
2019-05-10T11:35:43.364Z,444
2019-05-10T11:36:45.934Z,129
2019-05-10T11:37:46.132Z,151
2019-05-10T11:38:52.544Z,495
2019-05-10T11:39:50.515Z,253
2019-05-10T11:40:50.325Z,303
2019-05-10T11:42:01.067Z,253
2019-05-10T11:42:53.229Z,455
2019-05-10T11:43:58.068Z,450
2019-05-10T11:44:55.984Z,450
2019-05-10T11:45:57.378Z,438
2019-05-10T11:47:01.331Z,444
2019-05-10T11:48:02.055Z,444
2019-05-10T11:49:01.746Z,444
2019-05-10T11:50:06.399Z,450
2019-05-10T11:51:05.808Z,444
2019-05-10T11:52:05.566Z,450
2019-05-10T11:53:11.894Z,444
2019-05-10T11:54:08.328Z,438
2019-05-10T11:55:11.439Z,433
2019-05-10T11:56:14.170Z,421
2019-05-10T11:57:13.763Z,421
2019-05-10T11:58:13.805Z,433
2019-05-10T11:59:16.395Z,438
2019-05-10T12:00:28.022Z,421
2019-05-10T12:01:19.912Z,450
2019-05-10T12:02:35.319Z,472
2019-05-10T12:03:23.311Z,444
2019-05-10T12:04:30.392Z,455
2019-05-10T12:05:26.731Z,438
2019-05-10T12:06:24.741Z,433
2019-05-10T12:07:35.128Z,421
2019-05-10T12:08:27.493Z,427
2019-05-10T12:09:31.387Z,416
2019-05-10T12:10:32.091Z,405
2019-05-10T12:11:33.743Z,410
2019-05-10T12:13:34.388Z,416
2019-05-10T12:14:35.787Z,410
2019-05-10T12:15:37.190Z,427
2019-05-10T12:16:41.757Z,427
2019-05-10T12:17:46.399Z,427
2019-05-10T12:18:46.632Z,405
2019-05-10T12:19:47.867Z,281
2019-05-10T12:20:54.767Z,146
2019-05-10T12:21:45.635Z,163
2019-05-10T12:23:52.016Z,112
2019-05-10T12:25:06.067Z,101
2019-05-10T12:26:20.112Z,101
2019-05-10T12:26:29.495Z,135
2019-05-10T12:26:49.212Z,416
2019-05-10T12:27:18.870Z,95
2019-05-10T12:27:54.049Z,101
2019-05-10T12:29:02.644Z,84
2019-05-10T12:30:00.756Z,78
2019-05-10T12:30:58.147Z,73
2019-05-10T12:31:59.543Z,67
2019-05-10T12:33:08.705Z,67
2019-05-10T12:34:09.129Z,61
2019-05-10T12:35:03.697Z,61
2019-05-10T12:36:05.088Z,50
2019-05-10T12:37:08.206Z,50
2019-05-10T12:38:07.864Z,50
2019-05-10T12:39:11.366Z,56
2019-05-10T12:40:14.870Z,61
2019-05-10T12:41:11.974Z,61
2019-05-10T12:42:14.423Z,61
2019-05-10T12:43:14.771Z,67
2019-05-10T12:44:16.164Z,78
2019-05-10T12:45:17.557Z,95
2019-05-10T12:46:20.676Z,118
2019-05-10T12:47:21.434Z,135
2019-05-10T12:48:23.472Z,438
2019-05-10T12:49:23.072Z,438
2019-05-10T12:50:24.456Z,421
2019-05-10T12:51:25.859Z,416
2019-05-10T12:52:28.575Z,410
2019-05-10T12:53:28.645Z,405
2019-05-10T12:54:31.642Z,236
2019-05-10T12:55:31.425Z,151
2019-05-10T12:56:34.785Z,112
2019-05-10T12:57:34.210Z,84
2019-05-10T12:58:35.871Z,73
2019-05-10T12:59:37.333Z,56
2019-05-10T13:00:38.840Z,56
2019-05-10T13:01:40.202Z,56
2019-05-10T13:02:44.973Z,50
2019-05-10T13:03:42.976Z,45
2019-05-10T13:04:47.238Z,45
2019-05-10T13:05:52.408Z,45
2019-05-10T13:06:48.010Z,50
2019-05-10T13:07:49.468Z,50
2019-05-10T13:08:50.892Z,50
2019-05-10T13:10:02.695Z,56
2019-05-10T13:10:53.663Z,61
2019-05-10T13:12:03.118Z,73
2019-05-10T13:12:56.491Z,90
2019-05-10T13:14:01.039Z,135
2019-05-10T13:14:59.241Z,202
2019-05-10T13:16:03.583Z,556
2019-05-10T13:17:03.747Z,388
2019-05-10T13:18:03.444Z,140
2019-05-10T13:19:04.876Z,106
2019-05-10T13:20:06.295Z,101
2019-05-10T13:21:08.118Z,101
2019-05-10T13:22:09.086Z,101
2019-05-10T13:23:15.791Z,101
2019-05-10T13:24:11.842Z,106
2019-05-10T13:25:13.259Z,118
2019-05-10T13:26:14.732Z,405
2019-05-10T13:27:16.112Z,140
2019-05-10T13:28:17.508Z,129
2019-05-10T13:29:20.815Z,196
2019-05-10T13:30:27.092Z,264
2019-05-10T13:31:23.771Z,382
2019-05-10T13:32:25.189Z,348
2019-05-10T13:33:29.285Z,326
2019-05-10T13:34:28.122Z,320
2019-05-10T13:35:29.547Z,320
2019-05-10T13:36:36.688Z,320
2019-05-10T13:37:32.325Z,84
2019-05-10T13:38:36.883Z,78
2019-05-10T13:39:35.092Z,90
2019-05-10T13:40:39.226Z,78
2019-05-10T13:41:38.438Z,90
2019-05-10T13:42:43.199Z,84
2019-05-10T13:43:41.711Z,84
2019-05-10T13:44:44.439Z,90
2019-05-10T13:45:44.474Z,84
2019-05-10T13:46:45.871Z,78
2019-05-10T13:47:47.343Z,73
2019-05-10T13:48:48.717Z,78
2019-05-10T13:49:50.119Z,90
2019-05-10T13:50:51.637Z,185
2019-05-10T13:51:53.042Z,286
2019-05-10T13:52:54.473Z,112
2019-05-10T13:53:58.936Z,106
2019-05-10T13:54:59.385Z,101
2019-05-10T13:56:00.241Z,163
2019-05-10T13:57:03.635Z,331
2019-05-10T13:58:05.159Z,270
2019-05-10T13:59:15.802Z,320
2019-05-10T14:00:07.984Z,303
2019-05-10T14:01:13.091Z,303
2019-05-10T14:02:11.022Z,286
2019-05-10T14:03:13.514Z,101
2019-05-10T14:04:14.393Z,78
2019-05-10T14:05:17.742Z,73
2019-05-10T14:06:17.157Z,67
2019-05-10T14:07:18.591Z,61
2019-05-10T14:08:20.374Z,67
2019-05-10T14:09:21.788Z,90
2019-05-10T14:10:25.287Z,101
2019-05-10T14:11:25.328Z,123
2019-05-10T14:12:27.960Z,123
2019-05-10T14:13:29.624Z,123
2019-05-10T14:14:31.019Z,292
2019-05-10T14:15:32.446Z,298
2019-05-10T14:16:33.857Z,123
2019-05-10T14:17:36.346Z,292
2019-05-10T14:18:37.763Z,286
2019-05-10T14:19:39.211Z,286
2019-05-10T14:20:41.042Z,270
2019-05-10T14:21:42.514Z,90
2019-05-10T14:22:48.550Z,73
2019-05-10T14:23:45.959Z,67
2019-05-10T14:24:52.806Z,61
2019-05-10T14:25:49.490Z,61
2019-05-10T14:26:56.722Z,73
2019-05-10T14:27:53.848Z,202
2019-05-10T14:28:55.935Z,247
2019-05-10T14:29:57.353Z,275
2019-05-10T14:30:58.987Z,281
2019-05-10T14:32:00.141Z,208
2019-05-10T14:33:01.659Z,270
2019-05-10T14:34:18.260Z,258
2019-05-10T14:35:05.737Z,253
2019-05-10T14:36:07.955Z,253
2019-05-10T14:37:14.293Z,247
2019-05-10T14:38:11.087Z,241
2019-05-10T14:39:12.731Z,241
2019-05-10T14:40:16.894Z,247
2019-05-10T14:41:19.728Z,78
2019-05-10T14:42:24.149Z,106
2019-05-10T14:43:22.486Z,78